sensor_id;sensor_type;location;lat;lon;timestamp;P1;durP1;ratioP1;P2;durP2;ratioP2
42904;SDS011;28550;51.228;4.528;2024-03-23T00:54:18;22.52;;;7.60;;
42904;SDS011;28550;51.228;4.528;2024-03-23T00:56:44;24.63;;;8.18;;
42904;SDS011;28550;51.228;4.528;2024-03-23T00:59:12;27.05;;;8.45;;
42904;SDS011;28550;51.228;4.528;2024-03-23T01:01:39;24.52;;;8.27;;
42904;SDS011;28550;51.228;4.528;2024-03-23T01:04:04;20.05;;;8.57;;
42904;SDS011;28550;51.228;4.528;2024-03-23T01:06:31;21.45;;;7.88;;
42904;SDS011;28550;51.228;4.528;2024-03-23T01:08:57;24.70;;;8.13;;
42904;SDS011;28550;51.228;4.528;2024-03-23T01:11:33;22.77;;;7.53;;
42904;SDS011;28550;51.228;4.528;2024-03-23T01:13:59;29.65;;;9.10;;
42904;SDS011;28550;51.228;4.528;2024-03-23T01:16:25;29.65;;;9.10;;
42904;SDS011;28550;51.228;4.528;2024-03-23T01:19:06;23.20;;;8.25;;
42904;SDS011;28550;51.228;4.528;2024-03-23T01:21:40;26.08;;;7.68;;
42904;SDS011;28550;51.228;4.528;2024-03-23T01:24:06;18.60;;;8.13;;
42904;SDS011;28550;51.228;4.528;2024-03-23T01:26:38;27.02;;;7.80;;
42904;SDS011;28550;51.228;4.528;2024-03-23T01:29:05;25.30;;;8.30;;
42904;SDS011;28550;51.228;4.528;2024-03-23T01:31:30;24.08;;;8.57;;
42904;SDS011;28550;51.228;4.528;2024-03-23T01:33:57;29.10;;;9.18;;
42904;SDS011;28550;51.228;4.528;2024-03-23T01:36:23;26.80;;;8.77;;
42904;SDS011;28550;51.228;4.528;2024-03-23T01:38:51;21.92;;;7.85;;
42904;SDS011;28550;51.228;4.528;2024-03-23T01:41:24;20.00;;;8.48;;
42904;SDS011;28550;51.228;4.528;2024-03-23T01:43:50;24.80;;;7.93;;
42904;SDS011;28550;51.228;4.528;2024-03-23T01:46:17;27.45;;;9.65;;
42904;SDS011;28550;51.228;4.528;2024-03-23T01:51:48;19.35;;;8.13;;
42904;SDS011;28550;51.228;4.528;2024-03-23T01:54:16;26.83;;;8.90;;
42904;SDS011;28550;51.228;4.528;2024-03-23T01:56:44;20.05;;;9.05;;
42904;SDS011;28550;51.228;4.528;2024-03-23T01:59:11;22.15;;;8.82;;
42904;SDS011;28550;51.228;4.528;2024-03-23T02:01:38;25.15;;;8.65;;
42904;SDS011;28550;51.228;4.528;2024-03-23T02:04:04;22.63;;;8.82;;
42904;SDS011;28550;51.228;4.528;2024-03-23T02:06:34;19.42;;;8.20;;
42904;SDS011;28550;51.228;4.528;2024-03-23T02:09:01;21.73;;;8.15;;
42904;SDS011;28550;51.228;4.528;2024-03-23T02:11:33;18.80;;;8.85;;
42904;SDS011;28550;51.228;4.528;2024-03-23T02:14:00;23.48;;;8.77;;
42904;SDS011;28550;51.228;4.528;2024-03-23T02:16:27;23.25;;;8.73;;
42904;SDS011;28550;51.228;4.528;2024-03-23T02:18:52;21.65;;;8.77;;
42904;SDS011;28550;51.228;4.528;2024-03-23T02:21:42;18.40;;;9.30;;
42904;SDS011;28550;51.228;4.528;2024-03-23T02:24:10;25.50;;;10.77;;
42904;SDS011;28550;51.228;4.528;2024-03-23T02:26:39;28.88;;;10.25;;
42904;SDS011;28550;51.228;4.528;2024-03-23T02:29:04;25.48;;;10.98;;
42904;SDS011;28550;51.228;4.528;2024-03-23T02:31:33;30.20;;;10.85;;
42904;SDS011;28550;51.228;4.528;2024-03-23T02:33:59;32.38;;;11.90;;
42904;SDS011;28550;51.228;4.528;2024-03-23T02:36:25;41.42;;;12.45;;
42904;SDS011;28550;51.228;4.528;2024-03-23T02:39:32;36.92;;;11.27;;
42904;SDS011;28550;51.228;4.528;2024-03-23T02:42:07;28.83;;;11.07;;
42904;SDS011;28550;51.228;4.528;2024-03-23T02:47:08;31.63;;;12.48;;
42904;SDS011;28550;51.228;4.528;2024-03-23T02:49:33;25.60;;;10.45;;
42904;SDS011;28550;51.228;4.528;2024-03-23T02:52:02;32.28;;;11.95;;
42904;SDS011;28550;51.228;4.528;2024-03-23T02:54:30;29.05;;;11.18;;
42904;SDS011;28550;51.228;4.528;2024-03-23T02:57:03;27.92;;;11.02;;
42904;SDS011;28550;51.228;4.528;2024-03-23T03:02:24;26.92;;;11.35;;
42904;SDS011;28550;51.228;4.528;2024-03-23T03:04:50;24.98;;;11.07;;
42904;SDS011;28550;51.228;4.528;2024-03-23T03:07:15;24.27;;;11.05;;
42904;SDS011;28550;51.228;4.528;2024-03-23T03:09:43;31.17;;;11.45;;
42904;SDS011;28550;51.228;4.528;2024-03-23T03:20:57;34.05;;;11.98;;
42904;SDS011;28550;51.228;4.528;2024-03-23T03:23:24;27.35;;;10.85;;
42904;SDS011;28550;51.228;4.528;2024-03-23T03:25:52;22.77;;;10.65;;
42904;SDS011;28550;51.228;4.528;2024-03-23T03:31:40;30.77;;;11.70;;
42904;SDS011;28550;51.228;4.528;2024-03-23T03:34:38;28.58;;;9.93;;
42904;SDS011;28550;51.228;4.528;2024-03-23T03:42:29;24.20;;;11.10;;
42904;SDS011;28550;51.228;4.528;2024-03-23T03:44:56;27.80;;;11.75;;
42904;SDS011;28550;51.228;4.528;2024-03-23T03:47:24;29.85;;;11.88;;
42904;SDS011;28550;51.228;4.528;2024-03-23T03:49:51;26.52;;;10.95;;
42904;SDS011;28550;51.228;4.528;2024-03-23T03:52:26;27.35;;;10.05;;
42904;SDS011;28550;51.228;4.528;2024-03-23T04:00:33;26.05;;;9.70;;
42904;SDS011;28550;51.228;4.528;2024-03-23T04:06:33;26.83;;;10.48;;
42904;SDS011;28550;51.228;4.528;2024-03-23T04:11:55;27.83;;;10.63;;
42904;SDS011;28550;51.228;4.528;2024-03-23T04:20:03;22.15;;;8.73;;
42904;SDS011;28550;51.228;4.528;2024-03-23T04:36:06;23.45;;;7.97;;
42904;SDS011;28550;51.228;4.528;2024-03-23T04:38:41;20.67;;;8.52;;
42904;SDS011;28550;51.228;4.528;2024-03-23T04:41:12;17.80;;;7.05;;
42904;SDS011;28550;51.228;4.528;2024-03-23T04:43:40;27.38;;;7.47;;
42904;SDS011;28550;51.228;4.528;2024-03-23T04:46:11;18.23;;;6.90;;
42904;SDS011;28550;51.228;4.528;2024-03-23T04:49:00;24.92;;;6.53;;
42904;SDS011;28550;51.228;4.528;2024-03-23T04:51:27;23.45;;;7.05;;
42904;SDS011;28550;51.228;4.528;2024-03-23T04:54:11;14.85;;;6.63;;
42904;SDS011;28550;51.228;4.528;2024-03-23T04:56:43;20.58;;;7.70;;
42904;SDS011;28550;51.228;4.528;2024-03-23T05:00:11;21.00;;;7.25;;
42904;SDS011;28550;51.228;4.528;2024-03-23T05:02:43;23.08;;;6.97;;
42904;SDS011;28550;51.228;4.528;2024-03-23T05:05:13;20.27;;;7.05;;
42904;SDS011;28550;51.228;4.528;2024-03-23T05:07:48;19.42;;;6.18;;
42904;SDS011;28550;51.228;4.528;2024-03-23T06:58:06;11.40;;;5.45;;
42904;SDS011;28550;51.228;4.528;2024-03-23T07:03:22;15.27;;;3.80;;
42904;SDS011;28550;51.228;4.528;2024-03-23T07:08:47;11.00;;;2.63;;
42904;SDS011;28550;51.228;4.528;2024-03-23T07:11:28;8.63;;;2.78;;
42904;SDS011;28550;51.228;4.528;2024-03-23T07:23:14;7.85;;;2.58;;
42904;SDS011;28550;51.228;4.528;2024-03-23T07:31:50;5.15;;;1.92;;
42904;SDS011;28550;51.228;4.528;2024-03-23T07:34:20;11.68;;;3.00;;
42904;SDS011;28550;51.228;4.528;2024-03-23T07:36:46;14.93;;;2.72;;
42904;SDS011;28550;51.228;4.528;2024-03-23T07:39:17;5.72;;;1.98;;
42904;SDS011;28550;51.228;4.528;2024-03-23T07:42:10;9.60;;;2.70;;
42904;SDS011;28550;51.228;4.528;2024-03-23T10:08:00;12.35;;;2.08;;
42904;SDS011;28550;51.228;4.528;2024-03-23T10:10:49;3.88;;;1.50;;
42904;SDS011;28550;51.228;4.528;2024-03-23T12:15:22;6.30;;;1.92;;
42904;SDS011;28550;51.228;4.528;2024-03-23T13:06:40;4.60;;;2.17;;
42904;SDS011;28550;51.228;4.528;2024-03-23T13:10:03;8.43;;;2.83;;
